createdAt,value
2019-03-29T00:01:32.428Z,96900.56
2019-03-29T00:04:19.964Z,96894.72
2019-03-29T00:07:08.255Z,96886.06
2019-03-29T00:09:56.592Z,96889.33
2019-03-29T00:12:44.967Z,96891.19
2019-03-29T00:15:33.950Z,96892.22
2019-03-29T00:18:22.149Z,96899.54
2019-03-29T00:21:10.279Z,96891.22
2019-03-29T00:24:06.614Z,96886.61
2019-03-29T00:26:48.377Z,96898.03
2019-03-29T00:29:36.486Z,96888.65
2019-03-29T00:32:24.294Z,96882.13
2019-03-29T00:35:12.179Z,96883.47
2019-03-29T00:38:00.362Z,96886.40
2019-03-29T00:40:48.358Z,96881.59
2019-03-29T00:43:36.070Z,96885.66
2019-03-29T00:46:24.430Z,96879.51
2019-03-29T00:49:12.807Z,96880.59
2019-03-29T00:52:00.805Z,96876.86
2019-03-29T00:54:48.669Z,96874.46
2019-03-29T00:57:37.334Z,96881.50
2019-03-29T01:00:25.837Z,96872.88
2019-03-29T01:03:14.175Z,96866.13
2019-03-29T01:06:02.144Z,96866.65
2019-03-29T01:08:50.129Z,96861.56
2019-03-29T01:11:38.189Z,96862.89
2019-03-29T01:14:26.688Z,96862.89
2019-03-29T01:17:14.982Z,96861.53
2019-03-29T01:20:03.210Z,96858.33
2019-03-29T01:22:51.073Z,96858.59
2019-03-29T01:25:39.426Z,96855.64
2019-03-29T01:28:27.207Z,96853.49
2019-03-29T01:31:15.171Z,96850.26
2019-03-29T01:34:03.094Z,96845.45
2019-03-29T01:36:51.320Z,96850.56
2019-03-29T01:39:39.356Z,96849.75
2019-03-29T01:42:27.309Z,96861.33
2019-03-29T01:45:15.551Z,96848.95
2019-03-29T01:48:03.735Z,96850.33
2019-03-29T01:50:51.953Z,96852.20
2019-03-29T01:53:39.938Z,96851.93
2019-03-29T01:56:27.998Z,96852.77
2019-03-29T01:59:16.974Z,96850.07
2019-03-29T02:02:05.127Z,96853.84
2019-03-29T02:04:53.195Z,96851.15
2019-03-29T02:07:40.987Z,96849.53
2019-03-29T02:10:29.031Z,96847.92
2019-03-29T02:13:16.883Z,96847.35
2019-03-29T02:16:04.829Z,96852.23
2019-03-29T02:18:52.745Z,96846.58
2019-03-29T02:21:41.099Z,96846.83
2019-03-29T02:24:28.948Z,96848.19
2019-03-29T02:27:17.135Z,96850.09
2019-03-29T02:30:05.692Z,96848.75
2019-03-29T02:32:53.371Z,96848.72
2019-03-29T02:35:41.840Z,96840.92
2019-03-29T02:38:30.333Z,96848.22
2019-03-29T02:41:19.243Z,96850.12
2019-03-29T02:44:07.932Z,96841.76
2019-03-29T02:46:56.368Z,96843.10
2019-03-29T02:49:44.656Z,96848.20
2019-03-29T02:52:32.604Z,96840.95
2019-03-29T02:55:20.584Z,96847.14
2019-03-29T02:58:08.584Z,96850.63
2019-03-29T03:00:56.793Z,96848.23
2019-03-29T03:03:45.253Z,96846.06
2019-03-29T03:06:32.999Z,96848.48
2019-03-29T03:09:21.246Z,96856.84
2019-03-29T03:12:09.408Z,96860.07
2019-03-29T03:14:57.630Z,96866.51
2019-03-29T03:17:45.612Z,96858.99
2019-03-29T03:20:33.629Z,96858.44
2019-03-29T03:23:21.767Z,96856.56
2019-03-29T03:26:10.129Z,96865.18
2019-03-29T03:28:58.242Z,96861.66
2019-03-29T03:31:46.538Z,96856.02
2019-03-29T03:34:34.862Z,96865.97
2019-03-29T03:37:23.132Z,96870.27
2019-03-29T03:40:11.375Z,96864.62
2019-03-29T03:42:59.608Z,96870.53
2019-03-29T03:45:47.552Z,96867.59
2019-03-29T03:48:35.382Z,96868.92
2019-03-29T03:51:23.392Z,96869.20
2019-03-29T03:54:11.765Z,96864.60
2019-03-29T03:57:00.452Z,96865.97
2019-03-29T03:59:49.780Z,96865.14
2019-03-29T04:02:37.788Z,96864.89
2019-03-29T04:05:25.695Z,96860.84
2019-03-29T04:08:13.705Z,96871.06
2019-03-29T04:11:01.863Z,96872.67
2019-03-29T04:13:49.863Z,96862.98
2019-03-29T04:16:37.996Z,96871.84
2019-03-29T04:19:26.067Z,96871.57
2019-03-29T04:22:14.109Z,96874.78
2019-03-29T04:25:01.768Z,96871.57
2019-03-29T04:27:49.410Z,96871.30
2019-03-29T04:30:37.248Z,96879.61
2019-03-29T04:33:25.234Z,96884.19
2019-03-29T04:36:12.834Z,96882.55
2019-03-29T04:39:00.381Z,96884.71
2019-03-29T04:41:48.337Z,96880.95
2019-03-29T04:44:36.444Z,96883.13
2019-03-29T04:47:24.635Z,96887.42
2019-03-29T04:50:12.712Z,96887.43
2019-03-29T04:53:00.826Z,96887.41
2019-03-29T04:55:49.044Z,96889.02
2019-03-29T04:58:37.577Z,96894.64
2019-03-29T05:01:25.835Z,96893.57
2019-03-29T05:04:13.731Z,96894.09
2019-03-29T05:07:01.925Z,96899.43
2019-03-29T05:09:49.993Z,96909.39
2019-03-29T05:12:38.303Z,96908.08
2019-03-29T05:15:26.475Z,96905.91
2019-03-29T05:18:14.307Z,96908.88
2019-03-29T05:21:02.549Z,96907.80
2019-03-29T05:23:51.193Z,96906.70
2019-03-29T05:26:39.227Z,96906.48
2019-03-29T05:29:27.281Z,96897.88
2019-03-29T05:32:15.366Z,96898.39
2019-03-29T05:35:03.615Z,96900.84
2019-03-29T05:37:51.570Z,96894.94
2019-03-29T05:40:39.357Z,96901.41
2019-03-29T05:43:27.448Z,96902.75
2019-03-29T05:46:15.370Z,96905.19
2019-03-29T05:49:03.489Z,96907.13
2019-03-29T05:51:52.215Z,96908.73
2019-03-29T05:54:40.595Z,96915.41
2019-03-29T05:57:28.518Z,96913.52
2019-03-29T06:00:19.310Z,96904.60
2019-03-29T06:03:09.997Z,96905.47
2019-03-29T06:05:57.108Z,96906.50
2019-03-29T06:08:45.312Z,96906.45
2019-03-29T06:11:33.612Z,96911.98
2019-03-29T06:14:21.900Z,96907.84
2019-03-29T06:17:10.084Z,96911.60
2019-03-29T06:19:58.219Z,96911.41
2019-03-29T06:22:46.356Z,96910.27
2019-03-29T06:25:35.087Z,96905.72
2019-03-29T06:28:29.775Z,96910.23
2019-03-29T06:31:16.623Z,96912.84
2019-03-29T06:34:04.755Z,96912.58
2019-03-29T06:36:53.477Z,96914.20
2019-03-29T06:39:41.336Z,96912.63
2019-03-29T06:42:29.203Z,96913.06
2019-03-29T06:45:17.225Z,96913.14
2019-03-29T06:48:05.581Z,96914.48
2019-03-29T06:50:54.110Z,96915.73
2019-03-29T06:53:42.368Z,96915.62
2019-03-29T06:56:30.408Z,96915.67
2019-03-29T06:59:18.305Z,96922.03
2019-03-29T07:02:06.197Z,96915.95
2019-03-29T07:04:54.471Z,96920.89
2019-03-29T07:07:44.535Z,96926.19
2019-03-29T07:10:32.616Z,96930.99
2019-03-29T07:13:20.707Z,96929.50
2019-03-29T07:16:09.718Z,96925.39
2019-03-29T07:18:57.551Z,96928.84
2019-03-29T07:21:45.423Z,96926.91
2019-03-29T07:24:33.908Z,96931.25
2019-03-29T07:27:22.019Z,96932.52
2019-03-29T07:30:10.406Z,96932.75
2019-03-29T07:32:58.255Z,96933.58
2019-03-29T07:35:46.331Z,96931.29
2019-03-29T07:38:34.576Z,96934.84
2019-03-29T07:41:31.630Z,96932.05
2019-03-29T07:44:12.102Z,96937.34
2019-03-29T07:47:00.227Z,96938.75
2019-03-29T07:49:48.458Z,96939.03
2019-03-29T07:52:36.221Z,96941.32
2019-03-29T07:55:24.224Z,96935.70
2019-03-29T07:58:11.943Z,96937.17
2019-03-29T08:00:59.646Z,96937.80
2019-03-29T08:03:51.231Z,96937.82
2019-03-29T08:06:39.075Z,96941.88
2019-03-29T08:09:27.406Z,96938.75
2019-03-29T08:12:16.178Z,96940.92
2019-03-29T08:15:04.785Z,96936.82
2019-03-29T08:17:52.771Z,96940.83
2019-03-29T08:20:44.111Z,96936.17
2019-03-29T08:23:30.694Z,96937.31
2019-03-29T08:26:19.048Z,96943.31
2019-03-29T08:29:07.375Z,96945.36
2019-03-29T08:31:55.867Z,96938.81
2019-03-29T08:34:43.865Z,96941.66
2019-03-29T08:37:31.997Z,96940.56
2019-03-29T08:40:19.917Z,96935.73
2019-03-29T08:43:08.317Z,96944.69
2019-03-29T08:45:57.777Z,96943.26
2019-03-29T08:48:46.647Z,96943.41
2019-03-29T08:51:34.891Z,96943.52
2019-03-29T08:54:23.068Z,96940.80
2019-03-29T08:57:11.284Z,96946.53
2019-03-29T08:59:58.939Z,96950.66
2019-03-29T09:02:46.986Z,96950.41
2019-03-29T09:05:35.225Z,96953.25
2019-03-29T09:08:23.726Z,96953.01
2019-03-29T09:11:11.603Z,96955.91
2019-03-29T09:13:59.512Z,96951.75
2019-03-29T09:16:47.612Z,96948.78
2019-03-29T09:19:35.316Z,96947.82
2019-03-29T09:22:23.053Z,96949.79
2019-03-29T09:25:11.464Z,96950.78
2019-03-29T09:27:59.464Z,96953.13
2019-03-29T09:30:47.675Z,96949.04
2019-03-29T09:33:36.011Z,96941.63
2019-03-29T09:36:24.231Z,96938.59
2019-03-29T09:39:12.394Z,96937.42
2019-03-29T09:42:00.725Z,96934.48
2019-03-29T09:44:48.918Z,96938.42
2019-03-29T09:47:40.516Z,96932.98
2019-03-29T09:50:27.225Z,96935.09
2019-03-29T09:53:15.431Z,96937.62
2019-03-29T09:56:03.455Z,96926.17
2019-03-29T09:58:51.569Z,96932.70
2019-03-29T10:01:39.603Z,96926.47
2019-03-29T10:04:27.841Z,96926.25
2019-03-29T10:07:16.311Z,96924.24
2019-03-29T10:10:04.815Z,96926.36
2019-03-29T10:12:52.900Z,96925.91
2019-03-29T10:15:41.003Z,96919.52
2019-03-29T10:18:28.861Z,96920.35
2019-03-29T10:21:17.664Z,96925.32
2019-03-29T10:24:05.941Z,96923.53
2019-03-29T10:26:53.883Z,96924.08
2019-03-29T10:29:42.252Z,96920.93
2019-03-29T10:32:30.413Z,96918.54
2019-03-29T10:35:18.713Z,96910.58
2019-03-29T10:38:06.703Z,96910.55
2019-03-29T10:40:56.133Z,96902.31
2019-03-29T10:43:44.879Z,96902.38
2019-03-29T10:46:33.109Z,96901.09
2019-03-29T10:49:21.384Z,96899.73
2019-03-29T10:52:09.844Z,96893.73
2019-03-29T10:54:58.424Z,96900.07
2019-03-29T10:57:46.844Z,96900.53
2019-03-29T11:00:36.776Z,96903.02
2019-03-29T11:03:24.655Z,96896.62
2019-03-29T11:06:12.693Z,96892.39
2019-03-29T11:09:00.650Z,96888.19
2019-03-29T11:11:49.384Z,96884.45
2019-03-29T11:14:37.843Z,96894.29
2019-03-29T11:17:25.824Z,96886.16
2019-03-29T11:20:14.058Z,96885.76
2019-03-29T11:23:02.047Z,96875.41
2019-03-29T11:25:50.276Z,96881.33
2019-03-29T11:28:38.391Z,96884.45
2019-03-29T11:31:27.214Z,96876.63
2019-03-29T11:34:15.354Z,96871.59
2019-03-29T11:37:03.738Z,96874.52
2019-03-29T11:39:51.908Z,96872.34
2019-03-29T11:42:39.660Z,96882.38
2019-03-29T11:45:27.430Z,96881.89
2019-03-29T11:48:15.615Z,96877.73
2019-03-29T11:51:03.508Z,96872.30
2019-03-29T11:53:51.559Z,96871.33
2019-03-29T11:56:39.534Z,96865.23
2019-03-29T11:59:28.019Z,96860.96
2019-03-29T12:02:30.136Z,96866.92
2019-03-29T12:05:08.419Z,96863.64
2019-03-29T12:07:56.360Z,96864.42
2019-03-29T12:10:44.729Z,96861.12
2019-03-29T12:13:40.838Z,96863.19
2019-03-29T12:16:23.307Z,96866.83
2019-03-29T12:19:11.170Z,96855.06
2019-03-29T12:21:59.206Z,96853.91
2019-03-29T12:24:47.371Z,96854.11
2019-03-29T12:27:35.540Z,96850.63
2019-03-29T12:30:31.692Z,96842.25
2019-03-29T12:33:13.577Z,96838.98
2019-03-29T12:36:01.707Z,96836.33
2019-03-29T12:38:49.981Z,96841.05
2019-03-29T12:41:37.835Z,96834.51
2019-03-29T12:44:25.648Z,96836.77
2019-03-29T12:47:13.664Z,96833.38
2019-03-29T12:50:01.682Z,96826.06
2019-03-29T12:52:50.319Z,96829.26
2019-03-29T12:55:39.277Z,96828.83
2019-03-29T12:58:26.999Z,96829.61
2019-03-29T13:01:14.975Z,96820.74
2019-03-29T13:04:02.989Z,96813.87
2019-03-29T13:06:50.609Z,96818.32
2019-03-29T13:09:39.913Z,96809.07
2019-03-29T13:12:27.842Z,96801.11
2019-03-29T13:15:15.601Z,96796.32
2019-03-29T13:18:03.682Z,96797.13
2019-03-29T13:20:51.654Z,96791.20
2019-03-29T13:23:39.718Z,96792.55
2019-03-29T13:26:28.240Z,96785.70
2019-03-29T13:29:16.281Z,96787.19
2019-03-29T13:32:04.004Z,96780.95
2019-03-29T13:34:52.261Z,96775.67
2019-03-29T13:37:40.267Z,96776.78
2019-03-29T13:40:28.725Z,96776.77
2019-03-29T13:43:16.926Z,96769.47
2019-03-29T13:46:05.007Z,96771.16
2019-03-29T13:48:52.977Z,96768.30
2019-03-29T13:51:41.036Z,96767.89
2019-03-29T13:54:29.073Z,96768.23
2019-03-29T13:57:17.402Z,96754.92
2019-03-29T14:00:09.010Z,96752.63
2019-03-29T14:02:57.035Z,96750.97
2019-03-29T14:05:45.522Z,96749.73
2019-03-29T14:08:33.466Z,96756.45
2019-03-29T14:11:21.493Z,96746.38
2019-03-29T14:14:10.881Z,96743.97
2019-03-29T14:16:59.047Z,96738.02
2019-03-29T14:19:47.615Z,96738.05
2019-03-29T14:22:36.070Z,96740.08
2019-03-29T14:25:23.821Z,96736.63
2019-03-29T14:28:11.745Z,96727.52
2019-03-29T14:30:59.751Z,96731.86
2019-03-29T14:33:47.706Z,96726.13
2019-03-29T14:36:35.299Z,96724.76
2019-03-29T14:39:23.526Z,96724.08
2019-03-29T14:42:12.833Z,96720.67
2019-03-29T14:45:01.366Z,96718.63
2019-03-29T14:47:49.539Z,96717.48
2019-03-29T14:50:37.658Z,96711.34
2019-03-29T14:53:25.560Z,96699.23
2019-03-29T14:56:13.314Z,96702.40
2019-03-29T14:59:01.705Z,96700.67
2019-03-29T15:01:50.530Z,96703.56
2019-03-29T15:04:38.633Z,96696.01
2019-03-29T15:07:26.663Z,96694.44
2019-03-29T15:10:26.144Z,96691.73
2019-03-29T15:13:14.859Z,96697.91
2019-03-29T15:16:02.433Z,96687.84
2019-03-29T15:18:50.380Z,96681.48
2019-03-29T15:21:38.714Z,96681.25
2019-03-29T15:24:27.257Z,96680.67
2019-03-29T15:27:15.405Z,96681.03
2019-03-29T15:30:03.925Z,96672.36
2019-03-29T15:32:52.246Z,96665.75
2019-03-29T15:35:40.372Z,96671.22
2019-03-29T15:38:28.546Z,96667.37
2019-03-29T15:41:16.545Z,96668.06
2019-03-29T15:44:04.877Z,96663.95
2019-03-29T15:46:52.497Z,96666.80
2019-03-29T15:49:40.821Z,96664.41
2019-03-29T15:52:28.718Z,96664.41
2019-03-29T15:55:16.801Z,96658.39
2019-03-29T15:58:05.046Z,96655.55
2019-03-29T16:00:53.074Z,96648.69
2019-03-29T16:03:41.147Z,96648.59
2019-03-29T16:06:29.388Z,96652.45
2019-03-29T16:09:17.332Z,96653.69
2019-03-29T16:12:05.556Z,96647.54
2019-03-29T16:14:53.645Z,96643.44
2019-03-29T16:17:41.534Z,96645.73
2019-03-29T16:20:29.613Z,96646.42
2019-03-29T16:23:17.666Z,96640.58
2019-03-29T16:26:05.654Z,96640.25
2019-03-29T16:28:53.529Z,96639.13
2019-03-29T16:31:41.514Z,96635.48
2019-03-29T16:34:30.002Z,96646.17
2019-03-29T16:37:18.527Z,96637.98
2019-03-29T16:40:06.691Z,96632.98
2019-03-29T16:42:54.642Z,96628.19
2019-03-29T16:45:48.040Z,96629.78
2019-03-29T16:48:32.486Z,96630.44
2019-03-29T16:51:20.351Z,96630.70
2019-03-29T16:54:08.606Z,96627.70
2019-03-29T16:56:56.923Z,96632.52
2019-03-29T16:59:45.177Z,96627.48
2019-03-29T17:02:33.308Z,96632.16
2019-03-29T17:05:21.489Z,96633.97
2019-03-29T17:08:09.687Z,96633.53
2019-03-29T17:10:57.769Z,96628.86
2019-03-29T17:13:45.985Z,96627.23
2019-03-29T17:16:34.072Z,96634.03
2019-03-29T17:19:21.683Z,96637.58
2019-03-29T17:22:09.633Z,96643.36
2019-03-29T17:24:57.939Z,96632.90
2019-03-29T17:27:45.772Z,96637.16
2019-03-29T17:30:42.102Z,96637.85
2019-03-29T17:33:30.347Z,96638.33
2019-03-29T17:36:18.637Z,96629.00
2019-03-29T17:39:08.110Z,96626.86
2019-03-29T17:41:56.151Z,96630.72
2019-03-29T17:44:44.605Z,96627.17
2019-03-29T17:47:33.021Z,96631.26
2019-03-29T17:50:21.510Z,96633.19
2019-03-29T17:53:10.196Z,96632.15
2019-03-29T17:55:58.405Z,96631.98
2019-03-29T17:58:46.662Z,96635.00
2019-03-29T18:01:34.765Z,96628.44
2019-03-29T18:04:23.636Z,96627.09
2019-03-29T18:07:11.577Z,96623.91
2019-03-29T18:10:00.842Z,96635.57
2019-03-29T18:12:48.838Z,96634.41
2019-03-29T18:15:44.468Z,96638.28
2019-03-29T18:18:32.726Z,96631.34
2019-03-29T18:21:20.782Z,96638.64
2019-03-29T18:24:08.683Z,96635.80
2019-03-29T18:26:56.697Z,96632.41
2019-03-29T18:29:44.583Z,96639.80
2019-03-29T18:32:32.943Z,96642.66
2019-03-29T18:35:21.245Z,96647.17
2019-03-29T18:38:09.857Z,96644.21
2019-03-29T18:40:57.879Z,96643.20
2019-03-29T18:43:46.117Z,96642.91
2019-03-29T18:46:44.535Z,96640.88
2019-03-29T18:49:23.685Z,96642.34
2019-03-29T18:52:11.513Z,96639.52
2019-03-29T18:54:59.445Z,96642.64
2019-03-29T18:57:47.441Z,96643.59
2019-03-29T19:00:36.383Z,96641.76
2019-03-29T19:03:24.227Z,96643.70
2019-03-29T19:06:13.067Z,96653.33
2019-03-29T19:09:01.381Z,96657.33
2019-03-29T19:11:49.767Z,96648.77
2019-03-29T19:14:37.454Z,96652.80
2019-03-29T19:17:25.711Z,96648.63
2019-03-29T19:20:26.687Z,96649.67
2019-03-29T19:23:04.250Z,96654.00
2019-03-29T19:25:52.237Z,96653.03
2019-03-29T19:28:40.424Z,96652.06
2019-03-29T19:31:29.121Z,96654.63
2019-03-29T19:34:17.285Z,96650.16
2019-03-29T19:37:05.394Z,96657.34
2019-03-29T19:39:53.491Z,96651.75
2019-03-29T19:42:41.727Z,96647.92
2019-03-29T19:45:30.191Z,96647.20
2019-03-29T19:48:18.224Z,96644.41
2019-03-29T19:51:05.835Z,96637.22
2019-03-29T19:54:06.697Z,96632.02
2019-03-29T19:56:43.737Z,96640.25
2019-03-29T19:59:31.594Z,96646.32
2019-03-29T20:02:19.454Z,96641.83
2019-03-29T20:05:13.351Z,96637.95
2019-03-29T20:08:01.922Z,96632.11
2019-03-29T20:10:49.982Z,96634.59
2019-03-29T20:13:37.666Z,96626.98
2019-03-29T20:16:25.354Z,96627.22
2019-03-29T20:19:13.231Z,96624.48
2019-03-29T20:22:01.641Z,96626.84
2019-03-29T20:24:50.344Z,96626.05
2019-03-29T20:27:38.068Z,96626.64
2019-03-29T20:30:26.568Z,96635.45
2019-03-29T20:33:14.716Z,96631.69
2019-03-29T20:36:02.696Z,96634.94
2019-03-29T20:38:50.635Z,96633.70
2019-03-29T20:41:38.873Z,96630.27
2019-03-29T20:44:26.936Z,96634.84
2019-03-29T20:47:14.822Z,96636.10
2019-03-29T20:50:02.817Z,96636.97
2019-03-29T20:52:51.081Z,96640.00
2019-03-29T20:55:39.455Z,96634.16
2019-03-29T20:58:27.421Z,96638.76
2019-03-29T21:01:15.575Z,96640.93
2019-03-29T21:04:03.675Z,96642.89
2019-03-29T21:06:51.687Z,96643.36
2019-03-29T21:09:39.698Z,96641.25
2019-03-29T21:12:27.591Z,96648.64
2019-03-29T21:15:15.612Z,96652.58
2019-03-29T21:18:03.511Z,96646.98
2019-03-29T21:20:51.756Z,96653.55
2019-03-29T21:23:39.406Z,96646.13
2019-03-29T21:26:27.631Z,96648.98
2019-03-29T21:29:16.012Z,96650.66
2019-03-29T21:32:04.056Z,96649.52
2019-03-29T21:34:51.971Z,96646.50
2019-03-29T21:37:39.898Z,96648.20
2019-03-29T21:40:27.857Z,96648.48
2019-03-29T21:43:17.865Z,96649.66
2019-03-29T21:46:06.009Z,96655.45
2019-03-29T21:48:54.074Z,96648.98
2019-03-29T21:51:41.879Z,96654.09
2019-03-29T21:54:30.537Z,96651.90
2019-03-29T21:57:19.284Z,96648.98
2019-03-29T22:00:08.936Z,96647.87
2019-03-29T22:02:59.856Z,96645.29
2019-03-29T22:05:48.038Z,96648.25
2019-03-29T22:08:36.690Z,96645.63
2019-03-29T22:11:25.337Z,96643.17
2019-03-29T22:14:13.207Z,96644.48
2019-03-29T22:17:01.104Z,96649.66
2019-03-29T22:19:48.907Z,96643.14
2019-03-29T22:22:38.221Z,96644.52
2019-03-29T22:25:26.558Z,96645.59
2019-03-29T22:28:15.438Z,96648.95
2019-03-29T22:31:03.556Z,96647.66
2019-03-29T22:33:51.834Z,96649.91
2019-03-29T22:36:40.286Z,96650.49
2019-03-29T22:39:28.530Z,96648.97
2019-03-29T22:42:16.399Z,96647.29
2019-03-29T22:45:04.726Z,96644.52
2019-03-29T22:47:52.599Z,96638.16
2019-03-29T22:50:40.902Z,96643.52
2019-03-29T22:53:36.395Z,96640.89
2019-03-29T22:56:24.569Z,96642.09
2019-03-29T22:59:19.435Z,96645.45
2019-03-29T23:02:11.184Z,96637.47
2019-03-29T23:05:04.230Z,96631.95
2019-03-29T23:07:52.344Z,96633.98
2019-03-29T23:10:40.302Z,96634.92
2019-03-29T23:13:28.229Z,96630.30
2019-03-29T23:16:16.538Z,96631.95
2019-03-29T23:19:06.822Z,96628.05
2019-03-29T23:21:54.304Z,96625.35
2019-03-29T23:24:42.535Z,96627.02
2019-03-29T23:27:30.102Z,96627.30
2019-03-29T23:30:18.684Z,96620.86
2019-03-29T23:33:06.903Z,96627.34
2019-03-29T23:35:54.766Z,96628.64
2019-03-29T23:38:42.835Z,96629.02
2019-03-29T23:41:31.081Z,96630.25
2019-03-29T23:44:19.182Z,96628.23
2019-03-29T23:47:07.174Z,96634.88
2019-03-29T23:49:55.402Z,96631.45
2019-03-29T23:52:43.498Z,96636.61
2019-03-29T23:55:31.707Z,96636.23
2019-03-29T23:58:19.921Z,96638.78
